Time;durP1;ratioP1;P1;durP2;ratioP2;P2;SDS_P1;SDS_P2;PMS_P1;PMS_P2;Temp;Humidity;BMP_temperature;BMP_pressure;BME280_temperature;BME280_humidity;BME280_pressure;Samples;Min_cycle;Max_cycle;Signal;HPM_P1;HPM_P2
2024/01/15 00:04:33;;;;;;;4.68;3.63;;;;;;;0.15;100.00;96610.72;15291668;19;20036;-57
2024/01/15 00:09:58;;;;;;;7.25;4.78;;;;;;;0.14;100.00;96619.63;15288529;19;20481;-57
2024/01/15 00:15:33;;;;;;;5.93;4.45;;;;;;;0.12;100.00;96605.69;15291532;19;20029;-55
2024/01/15 00:20:59;;;;;;;5.38;4.18;;;;;;;0.10;100.00;96600.53;15289934;19;20031;-57
2024/01/15 00:26:23;;;;;;;6.57;4.32;;;;;;;0.14;100.00;96609.03;15293475;19;20018;-57
2024/01/15 00:31:50;;;;;;;7.57;4.80;;;;;;;0.12;100.00;96601.22;15291600;19;20032;-56
2024/01/15 00:37:15;;;;;;;5.18;4.00;;;;;;;0.13;100.00;96612.66;15294145;19;20010;-56
2024/01/15 00:42:40;;;;;;;5.72;4.25;;;;;;;0.11;100.00;96598.72;15292148;19;20029;-57
2024/01/15 00:48:07;;;;;;;5.47;4.38;;;;;;;0.09;100.00;96606.81;15296377;19;20019;-57
2024/01/15 00:53:32;;;;;;;7.05;5.07;;;;;;;0.05;100.00;96608.06;15288458;19;20014;-56
2024/01/15 00:58:57;;;;;;;6.47;4.63;;;;;;;0.04;100.00;96600.28;15294196;19;20062;-58
2024/01/15 01:04:24;;;;;;;7.40;5.50;;;;;;;0.03;100.00;96601.25;15284373;19;20119;-55
2024/01/15 01:09:51;;;;;;;7.05;5.35;;;;;;;0.00;100.00;96591.78;15283838;19;20098;-56
2024/01/15 01:15:22;;;;;;;7.50;5.18;;;;;;;0.04;100.00;96592.31;15031085;19;5000966;-54
2024/01/15 01:20:49;;;;;;;7.70;4.90;;;;;;;-0.01;100.00;96580.34;15287598;19;20031;-56
2024/01/15 01:26:14;;;;;;;8.38;5.93;;;;;;;-0.03;100.00;96597.34;15285744;19;20018;-57
2024/01/15 01:31:45;;;;;;;7.10;5.15;;;;;;;-0.04;100.00;96608.91;15285651;19;20447;-57
2024/01/15 01:37:14;;;;;;;7.70;5.53;;;;;;;-0.07;100.00;96596.78;15290705;19;20015;-56
2024/01/15 01:42:39;;;;;;;8.25;6.15;;;;;;;-0.08;100.00;96603.06;15287577;19;20772;-54
2024/01/15 01:48:03;;;;;;;8.98;6.55;;;;;;;-0.11;100.00;96578.66;15288969;19;20819;-56
2024/01/15 01:53:31;;;;;;;8.52;5.78;;;;;;;-0.14;100.00;96586.91;15288671;19;20351;-57
2024/01/15 01:58:57;;;;;;;9.05;5.80;;;;;;;-0.20;100.00;96578.53;15288248;19;20014;-57
2024/01/15 02:04:22;;;;;;;9.25;6.43;;;;;;;-0.25;100.00;96582.56;15290639;19;20046;-58
2024/01/15 02:09:50;;;;;;;9.10;6.05;;;;;;;-0.30;100.00;96561.81;15280052;19;20706;-58
2024/01/15 02:15:16;;;;;;;8.68;6.07;;;;;;;-0.35;100.00;96564.88;15281653;19;20025;-58
2024/01/15 02:20:41;;;;;;;8.18;6.05;;;;;;;-0.40;100.00;96582.16;15283434;19;20022;-57
2024/01/15 02:26:09;;;;;;;9.50;6.50;;;;;;;-0.47;100.00;96576.56;15284177;19;20078;-56
2024/01/15 02:31:34;;;;;;;7.65;5.85;;;;;;;-0.53;100.00;96571.84;15282002;19;20015;-56
2024/01/15 02:36:59;;;;;;;7.13;5.80;;;;;;;-0.56;100.00;96570.28;15287416;19;20424;-58
2024/01/15 02:42:26;;;;;;;8.13;6.00;;;;;;;-0.60;100.00;96568.06;15282803;19;20018;-59
2024/01/15 02:47:51;;;;;;;7.72;6.18;;;;;;;-0.64;100.00;96575.44;15286045;19;20099;-54
2024/01/15 02:53:15;;;;;;;9.65;6.78;;;;;;;-0.67;100.00;96579.19;15282897;19;20019;-59
2024/01/15 02:58:42;;;;;;;9.15;6.30;;;;;;;-0.70;100.00;96552.16;15288949;19;20086;-61
2024/01/15 03:04:07;;;;;;;8.57;5.97;;;;;;;-0.72;100.00;96539.09;15297268;19;20074;-59
2024/01/15 03:09:32;;;;;;;8.93;6.80;;;;;;;-0.74;100.00;96543.69;15290498;19;20023;-61
2024/01/15 03:15:06;;;;;;;8.60;6.45;;;;;;;-0.76;100.00;96558.84;15293022;19;20014;-61
2024/01/15 03:20:31;;;;;;;10.15;6.93;;;;;;;-0.78;100.00;96563.44;15290932;19;20869;-58
2024/01/15 03:25:55;;;;;;;10.20;6.93;;;;;;;-0.80;100.00;96560.09;15296695;19;20011;-62
2024/01/15 03:31:22;;;;;;;9.75;6.93;;;;;;;-0.81;100.00;96539.94;15293525;19;20074;-60
2024/01/15 03:36:47;;;;;;;9.32;6.47;;;;;;;-0.81;100.00;96532.81;15296338;19;20070;-62
2024/01/15 03:42:12;;;;;;;10.02;6.60;;;;;;;-0.76;100.00;96521.81;15292855;19;20344;-60
2024/01/15 03:47:39;;;;;;;9.30;4.93;;;;;;;-0.75;100.00;96539.38;15295804;19;20875;-63
2024/01/15 03:53:05;;;;;;;4.10;3.25;;;;;;;-0.53;100.00;96545.41;15294772;19;20023;-64
2024/01/15 03:58:30;;;;;;;9.20;5.90;;;;;;;-0.47;100.00;96547.47;15295876;19;20021;-61
2024/01/15 04:03:57;;;;;;;8.50;5.85;;;;;;;-0.57;100.00;96541.34;15294807;19;20505;-61
2024/01/15 04:09:22;;;;;;;6.38;4.57;;;;;;;-0.47;100.00;96558.06;15293854;19;20025;-63
2024/01/15 04:14:48;;;;;;;3.95;2.90;;;;;;;-0.36;100.00;96549.16;15288063;19;20665;-63
2024/01/15 04:20:17;;;;;;;4.00;3.15;;;;;;;-0.27;100.00;96547.47;15293314;19;20010;-64
2024/01/15 04:25:43;;;;;;;4.25;3.20;;;;;;;-0.23;100.00;96533.00;15294628;19;20041;-62
2024/01/15 04:31:07;;;;;;;4.35;3.25;;;;;;;-0.21;100.00;96541.63;15288442;19;20014;-68
2024/01/15 04:36:34;;;;;;;5.85;3.10;;;;;;;-0.23;100.00;96538.28;15286106;19;20014;-61
2024/01/15 04:41:59;;;;;;;4.72;3.30;;;;;;;-0.23;100.00;96551.50;15292166;19;20022;-62
2024/01/15 04:47:25;;;;;;;5.05;3.10;;;;;;;-0.25;100.00;96551.66;15297655;19;20018;-64
2024/01/15 04:52:52;;;;;;;3.38;2.83;;;;;;;-0.29;100.00;96563.50;15288544;19;20484;-61
2024/01/15 04:58:17;;;;;;;4.40;3.00;;;;;;;-0.33;100.00;96562.94;15296324;19;20035;-61
2024/01/15 05:03:41;;;;;;;4.45;2.75;;;;;;;-0.44;100.00;96549.00;15293487;19;20078;-64
2024/01/15 05:09:08;;;;;;;4.07;2.85;;;;;;;-0.53;100.00;96540.94;15288811;19;20021;-62
2024/01/15 05:14:40;;;;;;;3.83;2.58;;;;;;;-0.52;100.00;96539.09;15291100;19;20082;-60
2024/01/15 05:20:05;;;;;;;3.67;2.95;;;;;;;-0.53;100.00;96538.28;15285521;19;20018;-63
2024/01/15 05:25:33;;;;;;;3.28;2.60;;;;;;;-0.55;100.00;96532.28;15292845;19;20018;-63
2024/01/15 05:30:58;;;;;;;5.47;3.15;;;;;;;-0.57;100.00;96515.72;15292529;19;20035;-62
2024/01/15 05:36:23;;;;;;;3.20;2.72;;;;;;;-0.60;100.00;96521.31;15289964;19;20017;-64
2024/01/15 05:41:50;;;;;;;3.38;2.45;;;;;;;-0.60;100.00;96529.25;15283813;19;20467;-63
2024/01/15 05:47:15;;;;;;;3.92;2.38;;;;;;;-0.58;100.00;96537.84;15296009;19;20014;-61
2024/01/15 05:52:40;;;;;;;3.38;2.53;;;;;;;-0.53;100.00;96521.59;15306460;19;20345;-65
2024/01/15 05:58:07;;;;;;;3.90;2.92;;;;;;;-0.53;100.00;96526.88;15293214;19;20014;-63
2024/01/15 06:03:32;;;;;;;4.40;2.83;;;;;;;-0.54;100.00;96507.50;15288582;19;20802;-62
2024/01/15 06:08:59;;;;;;;3.70;2.67;;;;;;;-0.50;100.00;96510.72;15288883;19;20025;-63
2024/01/15 06:14:26;;;;;;;3.72;2.40;;;;;;;-0.51;100.00;96515.19;15285165;19;20097;-64
2024/01/15 06:19:51;;;;;;;3.92;2.70;;;;;;;-0.50;100.00;96521.28;15289837;19;20098;-62
2024/01/15 06:25:16;;;;;;;2.75;2.38;;;;;;;-0.56;100.00;96513.94;15291877;19;20074;-62
2024/01/15 06:30:43;;;;;;;3.47;2.30;;;;;;;-0.60;100.00;96520.47;15281828;19;20022;-63
2024/01/15 06:36:10;;;;;;;4.97;2.70;;;;;;;-0.72;100.00;96511.84;15291865;19;20013;-61
2024/01/15 06:41:34;;;;;;;4.60;3.00;;;;;;;-0.76;100.00;96519.19;15297358;19;20022;-59
2024/01/15 06:47:02;;;;;;;3.97;2.75;;;;;;;-0.82;100.00;96527.69;15296457;19;20031;-63
2024/01/15 06:52:27;;;;;;;4.05;2.50;;;;;;;-0.78;100.00;96508.75;15297295;19;20078;-63
2024/01/15 06:57:53;;;;;;;4.00;2.65;;;;;;;-0.80;100.00;96521.28;15306067;19;20033;-62
2024/01/15 07:03:20;;;;;;;5.47;2.90;;;;;;;-0.79;100.00;96530.06;15297748;19;20014;-62
2024/01/15 07:08:45;;;;;;;4.78;2.70;;;;;;;-0.80;100.00;96525.75;15301584;19;20094;-61
2024/01/15 07:14:16;;;;;;;5.03;3.08;;;;;;;-0.76;100.00;96521.81;15300718;19;20023;-63
2024/01/15 07:19:43;;;;;;;5.50;3.10;;;;;;;-0.72;100.00;96515.31;15294211;19;20026;-63
2024/01/15 07:25:08;;;;;;;5.43;3.38;;;;;;;-0.72;100.00;96520.59;15302356;19;20069;-62
2024/01/15 07:30:33;;;;;;;4.97;3.58;;;;;;;-0.75;100.00;96534.06;15300353;19;20029;-64
2024/01/15 07:36:01;;;;;;;4.10;2.78;;;;;;;-0.72;100.00;96544.38;15296803;19;20074;-62
2024/01/15 07:41:26;;;;;;;8.77;3.70;;;;;;;-0.67;100.00;96528.97;15295158;19;20023;-60
2024/01/15 07:46:53;;;;;;;5.88;3.78;;;;;;;-0.72;100.00;96544.38;15298234;19;20014;-62
2024/01/15 07:52:20;;;;;;;5.25;3.75;;;;;;;-0.79;100.00;96553.84;15293298;19;20490;-62
2024/01/15 07:57:45;;;;;;;5.18;3.45;;;;;;;-0.79;100.00;96553.84;15299692;19;20032;-62
2024/01/15 08:03:23;;;;;;;4.90;3.60;;;;;;;-0.75;100.00;96555.22;15293755;19;20074;-61
2024/01/15 08:08:50;;;;;;;5.07;3.67;;;;;;;-0.80;100.00;96557.47;15292312;19;20039;-61
2024/01/15 08:14:15;;;;;;;4.15;3.13;;;;;;;-0.79;100.00;96548.56;14785659;19;10000351;-61
2024/01/15 08:19:41;;;;;;;5.78;3.22;;;;;;;-0.75;100.00;96539.38;15297545;19;20033;-60
2024/01/15 08:25:09;;;;;;;4.22;2.63;;;;;;;-0.67;100.00;96530.75;15292944;19;20097;-60
2024/01/15 08:30:34;;;;;;;3.58;2.50;;;;;;;-0.54;100.00;96526.03;15294852;19;20015;-62
2024/01/15 08:35:59;;;;;;;4.53;2.70;;;;;;;-0.40;100.00;96510.72;15299178;19;20025;-59
2024/01/15 08:41:26;;;;;;;7.63;2.83;;;;;;;-0.36;100.00;96512.94;15290347;19;20021;-60
2024/01/15 08:46:51;;;;;;;4.53;2.40;;;;;;;-0.20;100.00;96504.44;15291259;19;20015;-58
2024/01/15 08:52:16;;;;;;;4.93;2.50;;;;;;;-0.04;100.00;96521.56;15291228;19;20018;-64
2024/01/15 08:57:43;;;;;;;3.28;2.40;;;;;;;0.04;100.00;96523.50;15260862;19;20097;-62
2024/01/15 09:03:08;;;;;;;3.05;2.08;;;;;;;0.09;100.00;96522.09;15289944;19;20024;-60
2024/01/15 09:08:33;;;;;;;3.80;2.40;;;;;;;0.20;100.00;96522.91;15294299;19;20534;-63
2024/01/15 09:14:09;;;;;;;4.80;2.60;;;;;;;0.34;100.00;96529.53;15293501;19;20033;-61
2024/01/15 09:19:36;;;;;;;4.75;2.72;;;;;;;0.37;100.00;96534.56;15295250;19;20018;-65
2024/01/15 09:25:01;;;;;;;5.22;2.00;;;;;;;0.40;100.00;96539.56;15297026;19;20038;-61
2024/01/15 09:30:28;;;;;;;3.50;2.47;;;;;;;0.43;100.00;96528.66;15287403;19;20024;-62
2024/01/15 09:35:53;;;;;;;4.57;2.28;;;;;;;0.48;100.00;96525.59;15294663;19;20029;-62
2024/01/15 09:41:18;;;;;;;3.63;2.30;;;;;;;0.52;100.00;96530.47;15294395;19;20020;-62
2024/01/15 09:46:45;;;;;;;4.60;2.45;;;;;;;0.55;100.00;96540.75;15288230;19;20402;-62
2024/01/15 09:52:10;;;;;;;4.70;3.00;;;;;;;0.66;100.00;96534.47;15287003;19;20017;-60
2024/01/15 09:57:35;;;;;;;4.65;2.80;;;;;;;0.83;100.00;96524.91;15292300;19;20021;-64
2024/01/15 10:03:06;;;;;;;3.50;2.30;;;;;;;0.87;100.00;96520.13;15285384;19;20025;-63
2024/01/15 10:08:32;;;;;;;3.85;2.47;;;;;;;0.88;100.00;96511.19;15265685;19;20710;-61
2024/01/15 10:14:04;;;;;;;3.50;2.30;;;;;;;0.80;100.00;96514.56;15290138;19;20035;-61
2024/01/15 10:19:34;;;;;;;4.43;2.67;;;;;;;0.83;100.00;96495.75;15290831;19;20097;-63
2024/01/15 10:25:01;;;;;;;4.90;2.45;;;;;;;0.82;100.00;96480.00;15285009;19;20078;-64
2024/01/15 10:30:27;;;;;;;3.25;2.35;;;;;;;0.99;100.00;96504.88;15288073;19;20017;-63
2024/01/15 10:35:54;;;;;;;5.32;2.85;;;;;;;1.10;100.00;96509.97;15291385;19;20014;-62
2024/01/15 10:41:19;;;;;;;3.45;2.40;;;;;;;1.15;100.00;96494.41;15288292;19;20015;-63
2024/01/15 10:46:45;;;;;;;3.28;2.45;;;;;;;1.15;100.00;96491.78;15290544;19;20022;-65
2024/01/15 10:52:13;;;;;;;6.78;3.05;;;;;;;1.13;100.00;96485.78;15282396;19;20552;-65
2024/01/15 10:57:38;;;;;;;5.35;2.80;;;;;;;1.19;100.00;96471.09;15288167;19;20093;-63
2024/01/15 11:03:05;;;;;;;3.50;2.60;;;;;;;1.37;100.00;96473.75;15277418;19;20359;-63
2024/01/15 11:08:34;;;;;;;4.03;2.65;;;;;;;1.45;100.00;96483.59;15286877;19;20019;-59
2024/01/15 11:14:06;;;;;;;3.65;2.30;;;;;;;1.46;100.00;96486.13;15286814;19;20046;-63
2024/01/15 11:19:39;;;;;;;4.05;2.40;;;;;;;1.41;100.00;96480.41;15285650;19;20050;-62
2024/01/15 11:25:10;;;;;;;6.03;2.55;;;;;;;1.38;100.00;96488.69;15300874;19;20014;-66
2024/01/15 11:30:37;;;;;;;4.65;2.40;;;;;;;1.34;100.00;96479.38;15298118;19;20035;-63
2024/01/15 11:36:01;;;;;;;2.90;2.17;;;;;;;1.26;100.00;96496.03;15296097;19;20014;-61
2024/01/15 11:41:29;;;;;;;4.07;2.15;;;;;;;1.22;100.00;96492.84;15299451;19;20010;-61
2024/01/15 11:47:06;;;;;;;3.58;2.15;;;;;;;1.23;100.00;96483.88;15304531;19;20086;-63
2024/01/15 11:52:36;;;;;;;2.78;1.92;;;;;;;1.29;100.00;96482.47;15295071;19;20503;-63
2024/01/15 11:58:03;;;;;;;5.30;2.10;;;;;;;1.39;100.00;96477.06;15298576;19;20010;-62
2024/01/15 12:03:29;;;;;;;3.50;2.10;;;;;;;1.46;100.00;96466.69;15296711;19;20021;-64
2024/01/15 12:08:53;;;;;;;2.50;1.63;;;;;;;1.50;100.00;96460.94;15294513;19;20094;-64
2024/01/15 12:14:20;;;;;;;2.47;1.60;;;;;;;1.40;100.00;96459.34;15298070;19;20035;-62
2024/01/15 12:19:46;;;;;;;2.72;1.80;;;;;;;1.38;100.00;96444.44;15299936;19;20024;-65
2024/01/15 12:25:11;;;;;;;3.58;1.55;;;;;;;1.46;100.00;96450.78;15299239;19;20025;-63
2024/01/15 12:30:39;;;;;;;2.67;1.50;;;;;;;1.51;100.00;96465.25;15295978;19;20018;-62
2024/01/15 12:36:07;;;;;;;1.95;1.45;;;;;;;1.44;100.00;96448.28;15297776;19;20014;-64
2024/01/15 12:41:32;;;;;;;1.70;1.55;;;;;;;1.38;100.00;96470.09;15288115;19;20019;-61
2024/01/15 12:47:00;;;;;;;2.25;1.55;;;;;;;1.37;100.00;96421.53;15298232;19;20074;-62
2024/01/15 12:52:24;;;;;;;2.17;1.67;;;;;;;1.38;100.00;96428.50;15298624;19;20089;-62
2024/01/15 12:57:49;;;;;;;4.75;1.77;;;;;;;1.35;100.00;96454.50;15299659;19;20089;-61
2024/01/15 13:03:16;;;;;;;1.88;1.50;;;;;;;1.38;100.00;96433.81;15305608;19;20023;-63
2024/01/15 13:08:42;;;;;;;3.08;1.50;;;;;;;1.38;100.00;96431.16;15292544;19;20022;-63
2024/01/15 13:14:06;;;;;;;2.22;1.70;;;;;;;1.39;100.00;96434.63;15287444;19;20075;-64
2024/01/15 13:19:34;;;;;;;2.47;1.77;;;;;;;1.34;100.00;96447.53;15293973;19;20018;-62
2024/01/15 13:24:58;;;;;;;2.72;1.70;;;;;;;1.28;100.00;96440.16;15296525;19;20093;-63
2024/01/15 13:30:23;;;;;;;2.05;1.55;;;;;;;1.20;100.00;96448.88;15294207;19;20014;-64
2024/01/15 13:35:51;;;;;;;3.63;1.65;;;;;;;1.14;100.00;96450.31;15291252;19;20014;-61
2024/01/15 13:41:18;;;;;;;2.05;1.60;;;;;;;1.15;100.00;96452.00;15288310;19;20376;-62
2024/01/15 13:46:42;;;;;;;3.35;1.83;;;;;;;1.18;100.00;96453.50;15285782;19;20427;-62
2024/01/15 13:52:10;;;;;;;2.53;1.63;;;;;;;1.14;100.00;96452.97;15286623;19;20019;-63
2024/01/15 13:57:35;;;;;;;3.17;1.67;;;;;;;1.11;100.00;96463.91;15288206;19;20042;-61
2024/01/15 14:03:00;;;;;;;3.83;2.10;;;;;;;1.07;100.00;96455.38;15290151;19;20018;-62
2024/01/15 14:08:27;;;;;;;4.05;1.77;;;;;;;1.01;100.00;96476.38;15291912;19;20010;-63
2024/01/15 14:13:59;;;;;;;2.83;1.90;;;;;;;0.99;100.00;96476.53;15282605;19;20020;-64
2024/01/15 14:19:24;;;;;;;2.17;1.80;;;;;;;0.96;100.00;96492.72;15273777;19;20022;-64
2024/01/15 14:24:52;;;;;;;2.65;1.77;;;;;;;0.97;100.00;96496.22;15289542;19;20015;-64
2024/01/15 14:30:18;;;;;;;3.08;2.00;;;;;;;0.95;100.00;96483.09;15289028;19;20025;-65
2024/01/15 14:35:42;;;;;;;2.28;1.73;;;;;;;0.94;100.00;96493.88;15285679;19;20126;-61
2024/01/15 14:41:09;;;;;;;2.40;1.98;;;;;;;0.92;100.00;96497.50;15287027;19;20021;-63
2024/01/15 14:46:34;;;;;;;2.05;1.85;;;;;;;0.90;100.00;96503.94;15280710;19;20356;-62
2024/01/15 14:51:59;;;;;;;2.67;2.00;;;;;;;0.87;100.00;96499.78;15280115;19;20358;-63
2024/01/15 14:57:26;;;;;;;2.25;1.88;;;;;;;0.85;100.00;96498.22;15296308;19;20392;-63
2024/01/15 15:02:51;;;;;;;3.22;1.98;;;;;;;0.84;100.00;96513.31;15297786;19;20364;-61
2024/01/15 15:08:15;;;;;;;3.15;2.13;;;;;;;0.81;100.00;96521.56;15292781;19;20078;-62
2024/01/15 15:13:42;;;;;;;2.80;2.20;;;;;;;0.80;100.00;96530.47;15294693;19;20078;-62
2024/01/15 15:19:07;;;;;;;3.13;2.40;;;;;;;0.76;100.00;96547.69;15298627;19;20021;-62
2024/01/15 15:24:32;;;;;;;2.95;2.20;;;;;;;0.73;100.00;96551.44;15264015;19;20014;-65
2024/01/15 15:30:00;;;;;;;2.92;2.38;;;;;;;0.65;100.00;96556.63;15291012;19;20014;-60
2024/01/15 15:35:25;;;;;;;3.70;2.25;;;;;;;0.56;100.00;96555.69;15299064;19;20032;-58
2024/01/15 15:40:49;;;;;;;3.05;2.20;;;;;;;0.55;100.00;96548.72;15296551;19;20025;-60
2024/01/15 15:46:17;;;;;;;3.05;2.05;;;;;;;0.59;100.00;96584.56;15297090;19;20013;-61
2024/01/15 15:51:42;;;;;;;4.40;2.40;;;;;;;0.57;100.00;96570.59;15293135;19;20349;-59
2024/01/15 15:57:07;;;;;;;4.03;2.47;;;;;;;0.55;100.00;96596.41;15267249;19;20093;-62
2024/01/15 16:02:34;;;;;;;3.72;2.13;;;;;;;0.48;100.00;96574.13;15292803;19;20018;-62
2024/01/15 16:07:59;;;;;;;3.67;2.10;;;;;;;0.45;100.00;96587.66;15298010;19;20021;-61
2024/01/15 16:13:25;;;;;;;3.28;2.10;;;;;;;0.43;100.00;96592.25;15290271;19;20359;-61
2024/01/15 16:18:53;;;;;;;3.70;2.20;;;;;;;0.42;100.00;96606.47;15294347;19;20026;-59
2024/01/15 16:24:37;;;;;;;2.70;2.00;;;;;;;0.41;100.00;96605.66;15290276;19;20018;-62
2024/01/15 16:30:11;;;;;;;2.45;1.85;;;;;;;0.42;100.00;96614.41;15293273;19;20015;-61
2024/01/15 16:35:52;;;;;;;3.15;2.10;;;;;;;0.42;100.00;96619.72;15290744;19;20336;-60
2024/01/15 16:41:17;;;;;;;2.90;1.83;;;;;;;0.44;100.00;96631.00;15293649;19;20021;-61
2024/01/15 16:46:41;;;;;;;3.30;1.95;;;;;;;0.44;100.00;96613.31;15291802;19;20018;-62
2024/01/15 16:52:10;;;;;;;2.45;1.70;;;;;;;0.47;100.00;96636.03;15288867;19;20021;-61
2024/01/15 16:57:34;;;;;;;1.88;1.50;;;;;;;0.49;100.00;96628.78;15283942;19;20020;-62
2024/01/15 17:02:59;;;;;;;4.20;1.80;;;;;;;0.49;100.00;96618.19;15289815;19;20021;-60
2024/01/15 17:08:27;;;;;;;2.38;1.30;;;;;;;0.51;100.00;96628.63;15294104;19;20010;-61
2024/01/15 17:13:52;;;;;;;2.10;1.45;;;;;;;0.55;100.00;96614.94;15288034;19;20019;-60
2024/01/15 17:19:16;;;;;;;2.95;1.50;;;;;;;0.52;100.00;96612.59;15291100;19;20137;-59
2024/01/15 17:24:44;;;;;;;2.35;1.40;;;;;;;0.52;100.00;96636.47;15292760;19;20077;-60
2024/01/15 17:30:09;;;;;;;1.25;1.13;;;;;;;0.51;100.00;96642.72;15286097;19;20710;-59
2024/01/15 17:35:34;;;;;;;2.13;1.40;;;;;;;0.57;100.00;96650.09;15300923;19;20022;-61
2024/01/15 17:41:01;;;;;;;2.45;1.30;;;;;;;0.56;100.00;96651.06;15288833;19;20042;-58
2024/01/15 17:46:26;;;;;;;1.50;1.20;;;;;;;0.52;100.00;96644.41;15292077;19;20020;-59
2024/01/15 17:51:52;;;;;;;2.13;1.40;;;;;;;0.53;100.00;96650.53;15288251;19;20014;-60
2024/01/15 17:57:20;;;;;;;2.58;1.30;;;;;;;0.54;100.00;96649.53;15288127;19;20366;-56
2024/01/15 18:02:44;;;;;;;2.35;1.40;;;;;;;0.55;100.00;96644.09;15281474;19;20041;-61
2024/01/15 18:08:11;;;;;;;1.48;1.27;;;;;;;0.56;100.00;96651.06;15288909;19;20038;-57
2024/01/15 18:13:38;;;;;;;1.50;1.10;;;;;;;0.60;100.00;96663.06;15285500;19;20097;-63
2024/01/15 18:19:03;;;;;;;2.00;1.08;;;;;;;0.64;100.00;96652.19;15288195;19;20377;-62
2024/01/15 18:24:27;;;;;;;1.58;0.90;;;;;;;0.65;100.00;96680.38;15286509;19;20054;-63
2024/01/15 18:29:56;;;;;;;1.45;1.00;;;;;;;0.70;100.00;96694.00;15290266;19;20889;-63
2024/01/15 18:35:21;;;;;;;0.93;0.90;;;;;;;0.70;100.00;96686.91;15307639;19;20085;-62
2024/01/15 18:40:46;;;;;;;1.50;0.95;;;;;;;0.67;100.00;96699.59;15311525;19;20035;-62
2024/01/15 18:46:15;;;;;;;1.55;0.90;;;;;;;0.63;100.00;96699.03;15314542;19;20017;-62
2024/01/15 18:51:41;;;;;;;1.15;0.80;;;;;;;0.56;100.00;96714.66;15307345;19;20377;-56
2024/01/15 18:57:09;;;;;;;1.40;0.80;;;;;;;0.49;100.00;96718.88;15312958;19;20349;-63
2024/01/15 19:02:37;;;;;;;1.20;0.82;;;;;;;0.36;100.00;96742.97;15312748;19;20082;-62
2024/01/15 19:08:02;;;;;;;1.40;0.82;;;;;;;0.15;100.00;96759.00;15311952;19;20342;-62
2024/01/15 19:13:27;;;;;;;2.42;1.00;;;;;;;-0.06;100.00;96745.84;15310666;19;20015;-64
2024/01/15 19:19:03;;;;;;;1.65;1.00;;;;;;;-0.24;100.00;96743.00;15311119;19;20018;-62
2024/01/15 19:24:28;;;;;;;2.30;0.90;;;;;;;-0.21;100.00;96762.09;15314365;19;20086;-61
2024/01/15 19:29:53;;;;;;;0.75;0.75;;;;;;;-0.09;100.00;96752.25;15313606;19;20381;-64
2024/01/15 19:35:21;;;;;;;2.95;0.90;;;;;;;0.06;100.00;96759.81;15309176;19;20375;-65
2024/01/15 19:40:46;;;;;;;0.75;0.65;;;;;;;0.15;100.00;96759.81;15303993;19;20028;-62
2024/01/15 19:46:11;;;;;;;1.17;0.70;;;;;;;0.22;100.00;96754.00;15295216;19;20907;-62
2024/01/15 19:51:39;;;;;;;2.63;0.80;;;;;;;0.26;100.00;96777.41;15298112;19;20102;-59
2024/01/15 19:57:06;;;;;;;2.75;0.95;;;;;;;0.30;100.00;96780.63;15296548;19;20713;-63
2024/01/15 20:02:30;;;;;;;2.15;0.90;;;;;;;0.37;100.00;96815.34;15295927;19;20023;-61
2024/01/15 20:08:03;;;;;;;1.40;0.80;;;;;;;0.42;100.00;96802.50;15297004;19;20086;-62
2024/01/15 20:13:27;;;;;;;1.65;0.80;;;;;;;0.41;100.00;96822.06;15308458;19;20015;-64
2024/01/15 20:18:58;;;;;;;1.25;0.80;;;;;;;0.43;100.00;96842.13;15295971;19;20023;-62
2024/01/15 20:24:26;;;;;;;2.17;1.10;;;;;;;0.42;100.00;96844.88;15295799;19;20626;-61
2024/01/15 20:29:50;;;;;;;2.30;1.10;;;;;;;0.38;100.00;96880.59;15291751;19;20479;-61
2024/01/15 20:35:15;;;;;;;1.17;1.00;;;;;;;0.35;100.00;96870.25;15290365;19;20023;-65
2024/01/15 20:40:44;;;;;;;2.15;1.05;;;;;;;0.35;100.00;96886.16;15292781;19;20547;-61
2024/01/15 20:46:09;;;;;;;2.15;1.00;;;;;;;0.33;100.00;96888.09;15287780;19;20006;-61
2024/01/15 20:51:33;;;;;;;2.78;1.00;;;;;;;0.34;100.00;96895.06;15286439;19;20025;-63
2024/01/15 20:57:04;;;;;;;3.75;1.30;;;;;;;0.33;100.00;96904.84;15288906;19;20014;-61
2024/01/15 21:02:28;;;;;;;1.73;0.82;;;;;;;0.32;100.00;96923.50;15281535;19;20034;-63
2024/01/15 21:07:54;;;;;;;2.22;1.02;;;;;;;0.29;100.00;96898.94;15292754;19;20019;-62
2024/01/15 21:13:21;;;;;;;3.25;1.25;;;;;;;0.29;100.00;96904.25;15279585;19;20848;-58
2024/01/15 21:18:52;;;;;;;5.18;1.38;;;;;;;0.25;100.00;96912.59;15279445;19;20025;-61
2024/01/15 21:24:20;;;;;;;5.78;1.30;;;;;;;0.22;100.00;96911.06;15284984;19;20476;-61
2024/01/15 21:29:47;;;;;;;3.20;1.02;;;;;;;0.25;100.00;96908.16;15289766;19;20081;-60
2024/01/15 21:35:13;;;;;;;1.90;1.00;;;;;;;0.26;100.00;96916.94;15281606;19;20093;-60
2024/01/15 21:40:37;;;;;;;3.42;1.08;;;;;;;0.25;100.00;96934.66;15289379;19;20764;-58
2024/01/15 21:46:05;;;;;;;2.15;1.00;;;;;;;0.22;100.00;96921.66;15283154;19;20527;-59
2024/01/15 21:51:29;;;;;;;2.95;1.13;;;;;;;0.22;100.00;96931.44;15284582;19;20014;-60
2024/01/15 21:56:54;;;;;;;2.78;1.00;;;;;;;0.18;100.00;96941.44;15284318;19;20015;-58
2024/01/15 22:02:21;;;;;;;3.03;1.00;;;;;;;0.18;100.00;96922.88;15280700;19;20483;-61
2024/01/15 22:07:48;;;;;;;3.22;1.00;;;;;;;0.16;100.00;96930.16;15280281;19;20099;-61
2024/01/15 22:13:13;;;;;;;2.47;0.90;;;;;;;0.17;100.00;96937.13;15277512;19;20021;-61
2024/01/15 22:18:41;;;;;;;4.85;1.20;;;;;;;0.20;100.00;96933.38;15285975;19;20033;-62
2024/01/15 22:24:05;;;;;;;2.95;1.10;;;;;;;0.20;100.00;96950.09;15285707;19;20018;-60
2024/01/15 22:29:30;;;;;;;3.75;1.20;;;;;;;0.15;100.00;96952.31;15288396;19;20018;-59
2024/01/15 22:34:57;;;;;;;4.47;1.00;;;;;;;0.10;100.00;96939.47;15284062;19;20090;-59
2024/01/15 22:40:22;;;;;;;3.83;1.10;;;;;;;0.08;100.00;96940.53;15288795;19;20429;-58
2024/01/15 22:45:46;;;;;;;2.53;0.98;;;;;;;0.06;100.00;96955.75;15280760;19;20640;-59
2024/01/15 22:51:14;;;;;;;2.13;0.85;;;;;;;0.06;100.00;96961.03;15286773;19;20014;-57
2024/01/15 22:56:38;;;;;;;5.40;1.10;;;;;;;0.10;100.00;96965.09;15282728;19;20031;-55
2024/01/15 23:02:03;;;;;;;3.92;1.10;;;;;;;0.12;100.00;96992.28;15277519;19;20010;-60
2024/01/15 23:07:30;;;;;;;3.00;1.20;;;;;;;0.14;100.00;96996.47;15283159;19;20521;-62
2024/01/15 23:12:55;;;;;;;1.48;0.77;;;;;;;0.17;100.00;96992.75;15274020;19;20098;-60
2024/01/15 23:18:26;;;;;;;2.60;0.90;;;;;;;0.17;100.00;97000.69;15286981;19;20094;-59
2024/01/15 23:23:54;;;;;;;1.92;0.90;;;;;;;0.17;100.00;97005.13;15285905;19;20020;-57
2024/01/15 23:29:18;;;;;;;1.27;0.60;;;;;;;0.16;100.00;97012.25;15300155;19;20032;-59
2024/01/15 23:34:43;;;;;;;2.35;0.70;;;;;;;0.20;100.00;97003.03;15291627;19;20036;-57
2024/01/15 23:40:12;;;;;;;2.95;0.80;;;;;;;0.23;100.00;97026.63;15300263;19;20020;-55
2024/01/15 23:45:37;;;;;;;1.58;0.80;;;;;;;0.27;100.00;97016.59;15036847;19;5001102;-58
2024/01/15 23:51:04;;;;;;;1.75;0.80;;;;;;;0.27;100.00;97022.75;15299235;19;20522;-58
2024/01/15 23:56:32;;;;;;;3.65;0.82;;;;;;;0.27;100.00;97043.09;15284895;19;20025;-59
